< < Back
Terminal Aerodrome Forecast


Current Version              Previous Versions:   1  2  3  4  5  6  7  8  9  

Terminal Aerodrome Forecast

670
FTUS42 KFFC 291128
TAFAHN
TAF
KAHN 291128Z 2912/3012 33004KT P6SM SKC
     FM291400 07006KT P6SM FEW250
     FM291800 33004KT P6SM FEW050
     FM291900 26004KT P6SM FEW050
     FM300000 00000KT P6SM SKC=

Latest METAR

467
SAUS70 KWBC 291200 RRA
MTRAHN
METAR KAHN 291151Z 32004KT 10SM CLR 18/14 A3002 RMK AO2 SLP159 T01780144
10178 20150 53014


USA.gov is the U.S. government's official web portal to all federal, state and local government web resources and services.